Terminal Aerodrome Forecast
Issued by NWS

Home | Current Version | Previous Version | Text Only | Print | Product List | Glossary On
Versions: 1 2 3 4 5 6 7 8 9 10 11 12 13 14 15 16 17 18 19 20 21 22 23 24 25 26 27 28 29 30 31 32 33 34 35 36 37 38 39 40 41
000
FTUS41 KBOX 292322
TAFFMH
TAF
KFMH 292322Z 3000/3024 15004KT P6SM FEW250
     FM300500 21005KT 3SM BR BKN003
     FM300800 22005KT 3/4SM BR BKN001
     FM301400 22009KT P6SM BKN008
     FM301800 20013G23KT P6SM BKN008
     FM302200 21012KT P6SM SCT008=

USA.gov is the U.S. government's official web portal to all federal, state and local government web resources and services.